createdAt,value
2023-04-10T00:01:08.552Z,15.75
2023-04-10T00:03:35.951Z,14.60
2023-04-10T00:06:03.144Z,14.93
2023-04-10T00:08:30.320Z,15.70
2023-04-10T00:10:57.491Z,14.88
2023-04-10T00:13:24.637Z,16.48
2023-04-10T00:15:51.812Z,13.52
2023-04-10T00:18:19.026Z,15.45
2023-04-10T00:20:46.626Z,16.10
2023-04-10T00:23:13.774Z,15.52
2023-04-10T00:25:40.928Z,13.65
2023-04-10T00:28:08.161Z,15.30
2023-04-10T00:30:35.319Z,14.60
2023-04-10T00:33:02.602Z,14.07
2023-04-10T00:35:29.794Z,16.05
2023-04-10T00:37:57.765Z,14.45
2023-04-10T00:40:25.012Z,14.88
2023-04-10T00:42:52.246Z,13.30
2023-04-10T00:45:19.480Z,15.13
2023-04-10T00:47:46.793Z,14.35
2023-04-10T00:50:14.169Z,14.70
2023-04-10T00:52:41.579Z,13.50
2023-04-10T00:55:09.107Z,14.35
2023-04-10T00:57:36.458Z,13.27
2023-04-10T01:00:04.778Z,13.50
2023-04-10T01:02:32.358Z,12.82
2023-04-10T01:04:59.766Z,14.02
2023-04-10T01:07:44.605Z,14.45
2023-04-10T01:10:30.704Z,14.73
2023-04-10T01:13:05.599Z,13.88
2023-04-10T01:15:36.746Z,11.60
2023-04-10T01:18:33.467Z,13.00
2023-04-10T01:21:03.174Z,13.88
2023-04-10T01:23:43.621Z,12.83
2023-04-10T01:26:11.918Z,12.13
2023-04-10T01:28:48.120Z,12.10
2023-04-10T01:31:19.898Z,12.10
2023-04-10T01:34:01.106Z,13.02
2023-04-10T01:36:29.563Z,11.47
2023-04-10T01:38:57.348Z,11.27
2023-04-10T01:41:25.464Z,12.55
2023-04-10T01:43:53.646Z,10.65
2023-04-10T01:46:22.316Z,13.95
2023-04-10T01:48:50.539Z,13.40
2023-04-10T01:51:18.113Z,13.48
2023-04-10T01:53:46.116Z,13.48
2023-04-10T01:56:13.980Z,13.25
2023-04-10T01:58:41.421Z,12.50
2023-04-10T02:01:16.418Z,12.17
2023-04-10T02:03:49.920Z,12.23
2023-04-10T02:06:22.755Z,11.35
2023-04-10T02:08:58.097Z,13.55
2023-04-10T02:11:44.031Z,11.75
2023-04-10T02:14:12.152Z,11.60
2023-04-10T02:16:40.736Z,11.65
2023-04-10T02:19:08.245Z,11.98
2023-04-10T02:21:36.300Z,11.93
2023-04-10T02:24:03.492Z,13.27
2023-04-10T02:26:30.696Z,9.97
2023-04-10T02:28:57.817Z,12.65
2023-04-10T02:31:25.406Z,12.23
2023-04-10T02:33:52.711Z,13.07
2023-04-10T02:36:20.036Z,11.98
2023-04-10T02:38:47.139Z,11.30
2023-04-10T02:41:14.348Z,11.98
2023-04-10T02:43:41.766Z,13.10
2023-04-10T02:46:08.944Z,10.63
2023-04-10T02:48:36.040Z,11.68
2023-04-10T02:51:03.872Z,13.20
2023-04-10T02:53:31.135Z,11.73
2023-04-10T02:55:58.306Z,10.82
2023-04-10T02:58:25.626Z,11.02
2023-04-10T03:00:52.853Z,11.45
2023-04-10T03:03:20.381Z,9.73
2023-04-10T03:05:49.363Z,11.25
2023-04-10T03:08:17.452Z,10.10
2023-04-10T03:10:48.707Z,12.90
2023-04-10T03:13:16.397Z,10.25
2023-04-10T03:15:43.919Z,11.27
2023-04-10T03:18:11.171Z,11.50
2023-04-10T03:20:42.097Z,10.68
2023-04-10T03:23:11.564Z,10.82
2023-04-10T03:25:38.718Z,11.07
2023-04-10T03:28:05.961Z,10.83
2023-04-10T03:30:35.285Z,12.13
2023-04-10T03:33:02.442Z,12.15
2023-04-10T03:35:29.583Z,10.98
2023-04-10T03:37:56.728Z,12.55
2023-04-10T03:40:23.917Z,10.33
2023-04-10T03:42:51.180Z,11.85
2023-04-10T03:45:18.301Z,10.68
2023-04-10T03:47:45.706Z,11.30
2023-04-10T03:50:13.164Z,11.25
2023-04-10T03:52:41.288Z,11.53
2023-04-10T03:55:08.636Z,11.27
2023-04-10T03:57:35.747Z,11.00
2023-04-10T04:00:03.022Z,11.73
2023-04-10T04:02:30.370Z,10.52
2023-04-10T04:04:57.935Z,10.70
2023-04-10T04:07:25.065Z,10.40
2023-04-10T04:09:52.440Z,11.48
2023-04-10T04:12:20.702Z,14.27
2023-04-10T04:14:47.805Z,10.90
2023-04-10T04:17:15.341Z,13.07
2023-04-10T04:19:42.430Z,11.43
2023-04-10T04:22:09.524Z,12.10
2023-04-10T04:24:36.620Z,13.13
2023-04-10T04:27:03.734Z,11.90
2023-04-10T04:29:30.939Z,11.47
2023-04-10T04:31:58.072Z,11.02
2023-04-10T04:34:25.266Z,12.50
2023-04-10T04:36:52.409Z,12.70
2023-04-10T04:39:20.546Z,11.63
2023-04-10T04:41:47.681Z,11.47
2023-04-10T04:44:14.852Z,11.70
2023-04-10T04:46:44.400Z,13.15
2023-04-10T04:49:11.855Z,11.75
2023-04-10T04:51:39.086Z,10.88
2023-04-10T04:54:06.293Z,13.13
2023-04-10T04:56:33.430Z,12.80
2023-04-10T04:59:00.600Z,12.88
2023-04-10T05:01:27.900Z,13.77
2023-04-10T05:03:55.264Z,11.82
2023-04-10T05:06:22.529Z,13.10
2023-04-10T05:08:49.648Z,11.38
2023-04-10T05:11:16.812Z,11.65
2023-04-10T05:13:44.021Z,12.80
2023-04-10T05:16:11.441Z,11.65
2023-04-10T05:18:38.622Z,12.80
2023-04-10T05:21:05.982Z,12.23
2023-04-10T05:23:33.159Z,11.48
2023-04-10T05:26:00.330Z,13.95
2023-04-10T05:28:27.531Z,12.57
2023-04-10T05:30:54.718Z,11.50
2023-04-10T05:33:22.275Z,14.68
2023-04-10T05:35:49.494Z,11.25
2023-04-10T05:38:16.629Z,13.07
2023-04-10T05:40:45.853Z,11.88
2023-04-10T05:43:13.569Z,10.93
2023-04-10T05:45:40.751Z,12.30
2023-04-10T05:48:07.895Z,11.93
2023-04-10T05:50:36.232Z,11.70
2023-04-10T05:53:03.357Z,11.82
2023-04-10T05:55:32.180Z,14.17
2023-04-10T05:57:59.345Z,12.85
2023-04-10T06:00:26.612Z,12.63
2023-04-10T06:02:53.885Z,13.88
2023-04-10T06:05:21.301Z,12.32
2023-04-10T06:07:48.537Z,12.30
2023-04-10T06:10:15.990Z,10.75
2023-04-10T06:12:43.104Z,11.32
2023-04-10T06:15:10.669Z,12.40
2023-04-10T06:17:44.335Z,11.23
2023-04-10T06:20:11.745Z,10.23
2023-04-10T06:22:38.893Z,12.77
2023-04-10T06:25:06.348Z,12.02
2023-04-10T06:27:35.846Z,11.32
2023-04-10T06:30:03.124Z,11.95
2023-04-10T06:32:30.591Z,11.40
2023-04-10T06:34:58.085Z,10.90
2023-04-10T06:37:31.226Z,12.32
2023-04-10T06:40:08.921Z,12.13
2023-04-10T06:42:36.148Z,12.18
2023-04-10T06:45:03.677Z,13.73
2023-04-10T06:47:32.228Z,11.27
2023-04-10T06:49:59.613Z,10.30
2023-04-10T06:52:26.896Z,10.05
2023-04-10T06:54:54.093Z,11.32
2023-04-10T06:57:21.366Z,10.57
2023-04-10T06:59:48.515Z,12.02
2023-04-10T07:02:15.678Z,11.60
2023-04-10T07:04:43.155Z,10.85
2023-04-10T07:07:12.550Z,11.05
2023-04-10T07:09:40.461Z,10.60
2023-04-10T07:12:07.692Z,12.43
2023-04-10T07:14:35.802Z,11.70
2023-04-10T07:17:03.288Z,12.98
2023-04-10T07:19:30.433Z,11.82
2023-04-10T07:21:57.693Z,11.00
2023-04-10T07:24:24.976Z,11.48
2023-04-10T07:26:52.257Z,12.13
2023-04-10T07:29:19.575Z,10.75
2023-04-10T07:31:46.839Z,10.18
2023-04-10T07:34:14.062Z,11.07
2023-04-10T07:36:41.256Z,11.05
2023-04-10T07:39:08.364Z,10.93
2023-04-10T07:41:35.858Z,9.93
2023-04-10T07:44:03.045Z,10.52
2023-04-10T07:46:30.234Z,10.87
2023-04-10T07:48:57.541Z,12.30
2023-04-10T07:51:24.777Z,10.93
2023-04-10T07:53:51.885Z,10.77
2023-04-10T07:56:19.771Z,11.02
2023-04-10T07:58:47.153Z,11.73
2023-04-10T08:01:14.907Z,10.25
2023-04-10T08:03:43.102Z,12.88
2023-04-10T08:06:10.781Z,12.00
2023-04-10T08:08:41.671Z,10.05
2023-04-10T08:11:23.367Z,11.03
2023-04-10T08:13:51.759Z,10.30
2023-04-10T08:16:30.007Z,11.70
2023-04-10T08:18:57.807Z,10.30
2023-04-10T08:21:28.634Z,10.15
2023-04-10T08:23:56.797Z,10.20
2023-04-10T08:26:24.229Z,11.00
2023-04-10T08:28:52.080Z,13.75
2023-04-10T08:31:19.848Z,10.40
2023-04-10T08:33:47.400Z,9.85
2023-04-10T08:36:20.048Z,9.37
2023-04-10T08:38:48.109Z,10.63
2023-04-10T08:41:16.327Z,10.55
2023-04-10T08:43:45.581Z,10.93
2023-04-10T08:46:14.319Z,9.52
2023-04-10T08:49:00.465Z,9.57
2023-04-10T08:51:31.512Z,10.63
2023-04-10T08:54:06.774Z,11.45
2023-04-10T08:56:34.298Z,12.50
2023-04-10T08:59:03.558Z,10.63
2023-04-10T09:01:31.043Z,10.50
2023-04-10T09:03:59.435Z,10.93
2023-04-10T09:06:27.273Z,11.57
2023-04-10T09:08:54.460Z,12.32
2023-04-10T09:11:21.796Z,10.85
2023-04-10T09:13:48.900Z,10.07
2023-04-10T09:16:16.379Z,10.77
2023-04-10T09:18:46.715Z,10.95
2023-04-10T09:21:15.740Z,10.65
2023-04-10T09:23:44.367Z,11.35
2023-04-10T09:26:28.441Z,10.87
2023-04-10T09:28:58.584Z,11.38
2023-04-10T09:31:30.521Z,10.57
2023-04-10T09:34:16.409Z,9.98
2023-04-10T09:36:44.316Z,11.55
2023-04-10T09:39:12.287Z,11.30
2023-04-10T09:41:55.693Z,10.07
2023-04-10T09:44:33.314Z,10.05
2023-04-10T09:47:16.115Z,10.20
2023-04-10T09:49:47.241Z,10.10
2023-04-10T09:52:22.012Z,9.70
2023-04-10T09:54:49.430Z,10.55
2023-04-10T09:57:20.753Z,9.55
2023-04-10T09:59:50.410Z,10.35
2023-04-10T10:02:18.644Z,10.55
2023-04-10T10:04:47.298Z,11.10
2023-04-10T10:07:18.762Z,10.73
2023-04-10T10:09:46.468Z,10.70
2023-04-10T10:12:16.771Z,9.63
2023-04-10T10:14:56.019Z,12.25
2023-04-10T10:17:25.458Z,10.70
2023-04-10T10:20:01.486Z,10.43
2023-04-10T10:22:29.326Z,11.50
2023-04-10T10:24:57.410Z,10.75
2023-04-10T10:27:26.136Z,9.38
2023-04-10T10:29:54.714Z,10.53
2023-04-10T10:32:22.806Z,10.13
2023-04-10T10:34:53.025Z,8.80
2023-04-10T10:37:23.253Z,10.85
2023-04-10T10:40:02.698Z,10.40
2023-04-10T10:42:39.166Z,10.23
2023-04-10T10:45:14.234Z,10.52
2023-04-10T10:47:46.665Z,12.57
2023-04-10T10:50:13.910Z,10.50
2023-04-10T10:52:42.778Z,10.02
2023-04-10T10:55:25.360Z,10.23
2023-04-10T10:57:53.355Z,8.57
2023-04-10T11:00:21.314Z,9.02
2023-04-10T11:03:22.597Z,12.00
2023-04-10T11:05:56.548Z,9.93
2023-04-10T11:08:44.125Z,9.00
2023-04-10T11:11:12.911Z,8.60
2023-04-10T11:14:03.060Z,8.07
2023-04-10T11:16:34.135Z,10.43
2023-04-10T11:19:13.976Z,9.73
2023-04-10T11:22:02.575Z,9.53
2023-04-10T11:24:30.173Z,8.93
2023-04-10T11:26:57.548Z,8.85
2023-04-10T11:29:27.897Z,8.98
2023-04-10T11:31:59.188Z,8.75
2023-04-10T11:34:30.877Z,8.10
2023-04-10T11:36:58.152Z,7.85
2023-04-10T11:39:27.752Z,8.38
2023-04-10T11:41:57.524Z,8.70
2023-04-10T11:44:32.514Z,7.90
2023-04-10T11:46:59.828Z,6.73
2023-04-10T11:49:28.194Z,8.50
2023-04-10T11:51:55.729Z,7.28
2023-04-10T11:54:23.807Z,7.43
2023-04-10T11:56:58.314Z,8.48
2023-04-10T11:59:25.866Z,7.10
2023-04-10T12:01:54.358Z,7.25
2023-04-10T12:04:22.666Z,8.45
2023-04-10T12:06:53.873Z,7.28
2023-04-10T12:09:21.649Z,9.80
2023-04-10T12:12:04.159Z,6.90
2023-04-10T12:14:35.526Z,6.50
2023-04-10T12:17:03.474Z,6.30
2023-04-10T12:19:31.930Z,6.35
2023-04-10T12:21:59.566Z,6.03
2023-04-10T12:24:47.291Z,6.47
2023-04-10T12:27:23.709Z,6.65
2023-04-10T12:29:52.233Z,6.07
2023-04-10T12:32:19.717Z,6.95
2023-04-10T12:34:53.948Z,6.60
2023-04-10T12:37:21.318Z,6.10
2023-04-10T12:39:48.582Z,5.78
2023-04-10T12:42:15.799Z,6.50
2023-04-10T12:44:55.880Z,6.40
2023-04-10T12:47:23.521Z,6.88
2023-04-10T12:50:12.728Z,6.63
2023-04-10T12:52:41.487Z,6.25
2023-04-10T12:55:12.174Z,6.55
2023-04-10T12:57:39.753Z,6.78
2023-04-10T13:00:09.417Z,8.25
2023-04-10T13:02:37.944Z,6.57
2023-04-10T13:05:06.280Z,6.32
2023-04-10T13:07:33.757Z,6.00
2023-04-10T13:10:01.097Z,6.70
2023-04-10T13:12:29.836Z,6.78
2023-04-10T13:14:57.129Z,7.63
2023-04-10T13:17:25.724Z,5.72
2023-04-10T13:19:53.357Z,6.15
2023-04-10T13:22:20.699Z,6.22
2023-04-10T13:24:47.822Z,6.53
2023-04-10T13:27:14.969Z,7.00
2023-04-10T13:29:42.982Z,6.47
2023-04-10T13:32:10.696Z,6.50
2023-04-10T13:34:37.938Z,5.90
2023-04-10T13:37:05.381Z,6.13
2023-04-10T13:39:32.651Z,5.97
2023-04-10T13:42:01.983Z,6.47
2023-04-10T13:44:29.171Z,6.47
2023-04-10T13:46:57.993Z,5.80
2023-04-10T13:49:25.541Z,5.78
2023-04-10T13:51:52.660Z,6.77
2023-04-10T13:54:20.132Z,6.25
2023-04-10T13:56:48.117Z,7.53
2023-04-10T13:59:15.400Z,6.75
2023-04-10T14:01:42.594Z,7.95
2023-04-10T14:04:09.761Z,6.77
2023-04-10T14:06:36.999Z,8.52
2023-04-10T14:09:04.307Z,6.63
2023-04-10T14:11:31.525Z,7.30
2023-04-10T14:13:58.786Z,8.35
2023-04-10T14:16:26.022Z,6.40
2023-04-10T14:18:53.388Z,7.65
2023-04-10T14:21:20.939Z,7.13
2023-04-10T14:23:48.273Z,6.60
2023-04-10T14:26:15.447Z,7.38
2023-04-10T14:28:42.684Z,5.90
2023-04-10T14:31:09.982Z,6.28
2023-04-10T14:33:37.100Z,6.75
2023-04-10T14:36:04.434Z,8.05
2023-04-10T14:38:31.593Z,5.75
2023-04-10T14:40:58.782Z,7.00
2023-04-10T14:43:25.924Z,6.97
2023-04-10T14:45:53.087Z,7.32
2023-04-10T14:48:21.319Z,6.93
2023-04-10T14:50:49.500Z,8.50
2023-04-10T14:53:16.898Z,8.47
2023-04-10T14:55:44.160Z,7.68
2023-04-10T14:58:11.417Z,7.65
2023-04-10T15:00:38.658Z,7.82
2023-04-10T15:03:06.654Z,8.95
2023-04-10T15:05:33.979Z,7.87
2023-04-10T15:08:01.236Z,7.78
2023-04-10T15:10:31.416Z,7.72
2023-04-10T15:12:58.602Z,7.97
2023-04-10T15:15:25.757Z,9.13
2023-04-10T15:17:53.065Z,8.23
2023-04-10T15:20:20.268Z,8.32
2023-04-10T15:22:48.319Z,9.30
2023-04-10T15:25:15.563Z,8.25
2023-04-10T15:27:42.704Z,9.70
2023-04-10T15:30:09.961Z,9.90
2023-04-10T15:32:40.254Z,9.30
2023-04-10T15:35:07.699Z,8.20
2023-04-10T15:37:37.893Z,8.27
2023-04-10T15:40:06.177Z,8.85
2023-04-10T15:42:34.000Z,9.70
2023-04-10T15:45:01.107Z,8.90
2023-04-10T15:47:28.301Z,10.43
2023-04-10T15:49:57.506Z,9.77
2023-04-10T15:52:24.705Z,8.75
2023-04-10T15:54:52.658Z,8.10
2023-04-10T15:57:19.870Z,7.93
2023-04-10T15:59:47.198Z,9.50
2023-04-10T16:02:14.479Z,9.35
2023-04-10T16:04:41.798Z,8.38
2023-04-10T16:07:09.024Z,9.40
2023-04-10T16:09:36.094Z,9.80
2023-04-10T16:12:03.536Z,10.43
2023-04-10T16:14:30.798Z,10.73
2023-04-10T16:16:58.004Z,8.55
2023-04-10T16:19:25.171Z,9.27
2023-04-10T16:21:52.403Z,9.60
2023-04-10T16:24:19.611Z,10.10
2023-04-10T16:26:46.839Z,10.15
2023-04-10T16:29:14.039Z,9.77
2023-04-10T16:31:41.317Z,11.73
2023-04-10T16:34:08.526Z,11.20
2023-04-10T16:36:35.663Z,12.98
2023-04-10T16:39:02.781Z,11.02
2023-04-10T16:41:29.881Z,14.48
2023-04-10T16:43:57.402Z,11.13
2023-04-10T16:46:24.603Z,12.57
2023-04-10T16:48:52.552Z,12.82
2023-04-10T16:51:19.967Z,12.52
2023-04-10T16:53:47.084Z,14.65
2023-04-10T16:56:14.182Z,12.27
2023-04-10T16:58:42.147Z,12.60
2023-04-10T17:01:18.470Z,11.38
2023-04-10T17:03:47.427Z,12.25
2023-04-10T17:06:15.944Z,9.40
2023-04-10T17:08:43.326Z,10.87
2023-04-10T17:11:12.545Z,9.93
2023-04-10T17:13:40.447Z,9.88
2023-04-10T17:16:07.924Z,11.48
2023-04-10T17:18:35.047Z,11.98
2023-04-10T17:21:02.163Z,13.07
2023-04-10T17:23:29.615Z,10.98
2023-04-10T17:25:56.787Z,13.18
2023-04-10T17:28:23.942Z,12.43
2023-04-10T17:30:51.096Z,12.57
2023-04-10T17:33:18.248Z,8.93
2023-04-10T17:35:45.480Z,8.43
2023-04-10T17:38:13.338Z,8.98
2023-04-10T17:40:41.170Z,7.38
2023-04-10T17:43:08.402Z,8.85
2023-04-10T17:45:39.785Z,8.57
2023-04-10T17:48:07.120Z,7.25
2023-04-10T17:50:34.432Z,9.35
2023-04-10T17:53:01.728Z,8.77
2023-04-10T17:55:28.883Z,7.93
2023-04-10T17:57:57.749Z,8.53
2023-04-10T18:00:25.032Z,8.95
2023-04-10T18:02:57.934Z,8.50
2023-04-10T18:05:25.469Z,8.38
2023-04-10T18:07:52.574Z,9.23
2023-04-10T18:10:19.941Z,7.90
2023-04-10T18:12:47.180Z,8.85
2023-04-10T18:15:14.445Z,8.63
2023-04-10T18:17:41.716Z,8.35
2023-04-10T18:20:09.308Z,9.60
2023-04-10T18:22:36.463Z,8.20
2023-04-10T18:25:03.647Z,9.27
2023-04-10T18:27:31.718Z,8.38
2023-04-10T18:29:58.957Z,8.23
2023-04-10T18:32:26.062Z,8.07
2023-04-10T18:34:53.222Z,11.07
2023-04-10T18:37:20.311Z,8.52
2023-04-10T18:39:47.521Z,6.57
2023-04-10T18:42:14.628Z,8.45
2023-04-10T18:44:41.762Z,10.60
2023-04-10T18:47:11.006Z,10.23
2023-04-10T18:49:38.394Z,8.07
2023-04-10T18:52:05.624Z,7.00
2023-04-10T18:54:34.075Z,10.10
2023-04-10T18:57:01.229Z,8.32
2023-04-10T18:59:28.702Z,9.70
2023-04-10T19:01:57.039Z,7.43
2023-04-10T19:04:24.759Z,8.23
2023-04-10T19:06:52.052Z,8.82
2023-04-10T19:09:19.231Z,9.07
2023-04-10T19:11:46.532Z,8.87
2023-04-10T19:14:13.640Z,9.73
2023-04-10T19:16:40.723Z,7.05
2023-04-10T19:19:07.811Z,9.13
2023-04-10T19:21:34.965Z,7.72
2023-04-10T19:24:02.229Z,6.87
2023-04-10T19:26:29.350Z,8.60
2023-04-10T19:28:56.691Z,10.75
2023-04-10T19:31:27.405Z,11.18
2023-04-10T19:33:54.612Z,12.40
2023-04-10T19:36:21.817Z,9.57
2023-04-10T19:38:51.074Z,9.30
2023-04-10T19:41:18.774Z,9.38
2023-04-10T19:43:46.339Z,8.25
2023-04-10T19:46:20.260Z,9.23
2023-04-10T19:48:47.839Z,11.17
2023-04-10T19:51:15.275Z,8.23
2023-04-10T19:53:42.589Z,8.15
2023-04-10T19:56:09.838Z,9.32
2023-04-10T19:58:41.160Z,8.00
2023-04-10T20:01:09.186Z,9.87
2023-04-10T20:03:37.931Z,10.80
2023-04-10T20:06:07.506Z,11.45
2023-04-10T20:08:35.658Z,10.88
2023-04-10T20:11:06.150Z,10.23
2023-04-10T20:13:34.697Z,9.73
2023-04-10T20:16:02.177Z,12.07
2023-04-10T20:18:29.368Z,10.73
2023-04-10T20:20:56.584Z,11.05
2023-04-10T20:23:23.731Z,11.35
2023-04-10T20:25:50.907Z,10.37
2023-04-10T20:28:18.156Z,9.25
2023-04-10T20:30:45.389Z,14.98
2023-04-10T20:33:12.531Z,9.02
2023-04-10T20:35:39.783Z,9.57
2023-04-10T20:38:06.952Z,8.70
2023-04-10T20:40:34.144Z,8.38
2023-04-10T20:43:01.247Z,9.98
2023-04-10T20:45:28.334Z,9.70
2023-04-10T20:47:56.904Z,10.15
2023-04-10T20:50:24.075Z,11.50
2023-04-10T20:52:51.351Z,11.90
2023-04-10T20:55:18.472Z,9.43
2023-04-10T20:57:45.705Z,9.20
2023-04-10T21:00:13.119Z,11.48
2023-04-10T21:02:40.437Z,11.43
2023-04-10T21:05:07.787Z,12.40
2023-04-10T21:07:34.956Z,11.45
2023-04-10T21:10:02.096Z,13.00
2023-04-10T21:12:29.180Z,10.27
2023-04-10T21:14:56.263Z,13.43
2023-04-10T21:17:23.609Z,11.38
2023-04-10T21:19:50.777Z,12.63
2023-04-10T21:22:17.945Z,15.02
2023-04-10T21:24:45.217Z,10.35
2023-04-10T21:27:12.335Z,12.93
2023-04-10T21:29:39.491Z,11.30
2023-04-10T21:32:06.761Z,8.77
2023-04-10T21:34:33.978Z,12.32
2023-04-10T21:37:01.073Z,11.68
2023-04-10T21:39:29.890Z,10.60
2023-04-10T21:41:57.045Z,9.90
2023-04-10T21:44:24.226Z,10.60
2023-04-10T21:46:51.492Z,16.58
2023-04-10T21:49:18.664Z,11.10
2023-04-10T21:51:45.872Z,14.23
2023-04-10T21:54:13.190Z,12.55
2023-04-10T21:56:41.255Z,16.20
2023-04-10T21:59:08.386Z,14.60
2023-04-10T22:01:35.745Z,16.58
2023-04-10T22:04:03.467Z,16.67
2023-04-10T22:06:31.486Z,11.88
2023-04-10T22:08:58.641Z,14.90
2023-04-10T22:11:25.872Z,15.25
2023-04-10T22:13:53.645Z,22.40
2023-04-10T22:16:21.901Z,15.90
2023-04-10T22:18:49.110Z,5.80
2023-04-10T22:21:16.258Z,6.43
2023-04-10T22:23:43.416Z,5.82
2023-04-10T22:26:10.719Z,3.78
2023-04-10T22:28:37.799Z,4.03
2023-04-10T22:31:04.966Z,3.83
2023-04-10T22:33:35.121Z,5.07
2023-04-10T22:36:02.390Z,3.33
2023-04-10T22:38:29.494Z,6.28
2023-04-10T22:40:56.612Z,3.93
2023-04-10T22:43:23.761Z,4.50
2023-04-10T22:45:50.918Z,4.65
2023-04-10T22:48:18.147Z,4.97
2023-04-10T22:50:45.324Z,4.65
2023-04-10T22:53:12.754Z,4.00
2023-04-10T22:55:40.145Z,3.80
2023-04-10T22:58:07.687Z,5.72
2023-04-10T23:00:35.129Z,4.50
2023-04-10T23:03:02.527Z,5.75
2023-04-10T23:05:29.880Z,6.20
2023-04-10T23:07:56.994Z,5.05
2023-04-10T23:10:24.060Z,6.88
2023-04-10T23:12:51.239Z,6.53
2023-04-10T23:15:18.349Z,4.70
2023-04-10T23:17:45.480Z,7.67
2023-04-10T23:20:12.741Z,4.93
2023-04-10T23:22:39.870Z,7.82
2023-04-10T23:25:07.300Z,6.15
2023-04-10T23:27:34.471Z,14.35
2023-04-10T23:30:02.058Z,6.77
2023-04-10T23:32:29.396Z,11.52
2023-04-10T23:34:56.559Z,11.05
2023-04-10T23:37:23.761Z,12.48
2023-04-10T23:39:50.976Z,9.38
2023-04-10T23:42:18.075Z,11.37
2023-04-10T23:44:45.181Z,13.65
2023-04-10T23:47:12.344Z,17.67
2023-04-10T23:49:39.526Z,16.67
2023-04-10T23:52:06.703Z,19.60
2023-04-10T23:54:33.910Z,15.50
2023-04-10T23:57:01.107Z,19.45
2023-04-10T23:59:28.225Z,17.48
